Time;durP1;ratioP1;P1;durP2;ratioP2;P2;SDS_P1;SDS_P2;PMS_P1;PMS_P2;Temp;Humidity;BMP_temperature;BMP_pressure;BME280_temperature;BME280_humidity;BME280_pressure;Samples;Min_cycle;Max_cycle;Signal;HPM_P1;HPM_P2
2021/08/19 00:01:21;;;;;;;7.22;6.53;;;17.50;95.50;;;;;;5075397;28;20040;-57
2021/08/19 00:03:47;;;;;;;8.90;7.65;;;17.50;95.50;;;;;;5075622;28;20033;-51
2021/08/19 00:06:13;;;;;;;9.07;8.02;;;17.50;95.30;;;;;;5074634;28;20042;-52
2021/08/19 00:08:41;;;;;;;8.65;7.75;;;17.50;95.20;;;;;;5074935;28;20086;-51
2021/08/19 00:11:08;;;;;;;9.32;8.13;;;17.50;95.40;;;;;;5074953;28;20083;-52
2021/08/19 00:13:33;;;;;;;11.15;7.60;;;17.60;95.10;;;;;;5075303;28;20059;-50
2021/08/19 00:15:59;;;;;;;10.00;8.27;;;17.50;95.10;;;;;;5074654;28;20056;-50
2021/08/19 00:18:25;;;;;;;9.25;8.35;;;17.50;95.20;;;;;;5074654;28;20037;-53
2021/08/19 00:20:50;;;;;;;8.25;7.45;;;17.50;95.20;;;;;;5091554;28;20040;-51
2021/08/19 00:23:16;;;;;;;8.35;7.53;;;17.60;95.10;;;;;;5095409;28;20036;-53
2021/08/19 00:25:42;;;;;;;10.35;8.60;;;17.60;94.90;;;;;;5094365;28;20036;-51
2021/08/19 00:28:08;;;;;;;10.98;8.48;;;17.50;95.10;;;;;;5094531;28;20108;-53
2021/08/19 00:30:33;;;;;;;9.85;8.35;;;17.40;95.20;;;;;;5094247;28;20558;-59
2021/08/19 00:32:59;;;;;;;10.15;8.40;;;17.50;95.00;;;;;;5091704;28;20044;-54
2021/08/19 00:35:25;;;;;;;8.95;8.05;;;17.50;95.10;;;;;;5084574;28;20063;-51
2021/08/19 00:37:51;;;;;;;9.10;8.18;;;17.50;95.00;;;;;;5087832;28;20067;-55
2021/08/19 00:40:16;;;;;;;9.77;8.75;;;17.50;95.00;;;;;;5094340;28;20392;-49
2021/08/19 00:42:42;;;;;;;9.52;8.52;;;17.40;95.10;;;;;;5094637;28;20036;-49
2021/08/19 00:45:09;;;;;;;9.38;8.48;;;17.50;95.10;;;;;;5094742;28;20061;-50
2021/08/19 00:47:38;;;;;;;9.93;8.93;;;17.40;95.10;;;;;;5094369;28;20035;-51
2021/08/19 00:50:04;;;;;;;9.55;8.50;;;17.40;95.10;;;;;;5094452;28;20032;-55
2021/08/19 00:52:31;;;;;;;10.88;8.52;;;17.40;95.20;;;;;;5079301;28;20128;-51
2021/08/19 00:54:58;;;;;;;10.57;9.10;;;17.30;95.30;;;;;;5074190;28;20030;-53
2021/08/19 00:57:24;;;;;;;9.35;8.40;;;17.30;95.20;;;;;;5073786;28;20036;-52
2021/08/19 00:59:52;;;;;;;9.48;8.57;;;17.30;95.40;;;;;;5074154;28;20051;-52
2021/08/19 01:02:20;;;;;;;10.85;7.95;;;17.30;95.30;;;;;;5074034;28;20111;-54
2021/08/19 01:04:45;;;;;;;8.50;7.70;;;17.30;95.30;;;;;;5073715;28;20219;-51
2021/08/19 01:07:11;;;;;;;9.13;8.15;;;17.30;95.40;;;;;;5073721;28;20075;-50
2021/08/19 01:09:38;;;;;;;8.90;7.75;;;17.30;95.20;;;;;;5073588;28;20484;-52
2021/08/19 01:12:05;;;;;;;9.02;7.82;;;17.40;95.30;;;;;;5074109;28;20029;-51
2021/08/19 01:14:31;;;;;;;9.25;8.35;;;17.30;95.40;;;;;;5074209;28;20028;-52
2021/08/19 01:16:57;;;;;;;8.25;7.45;;;17.40;95.30;;;;;;5073521;28;20094;-54
2021/08/19 01:19:23;;;;;;;8.80;7.90;;;17.40;95.20;;;;;;5073427;28;20029;-56
2021/08/19 01:21:50;;;;;;;8.85;7.85;;;17.40;95.20;;;;;;5073326;28;20440;-56
2021/08/19 01:24:16;;;;;;;9.80;8.80;;;17.30;95.30;;;;;;5073472;28;20480;-55
2021/08/19 01:26:42;;;;;;;9.30;8.43;;;17.30;95.40;;;;;;5054955;28;20044;-55
2021/08/19 01:29:09;;;;;;;9.68;7.85;;;17.30;95.30;;;;;;5072931;28;20033;-54
2021/08/19 01:31:35;;;;;;;9.80;8.20;;;17.20;95.50;;;;;;5087780;28;20039;-53
2021/08/19 01:34:01;;;;;;;9.88;8.48;;;17.20;95.50;;;;;;5093567;28;20387;-54
2021/08/19 01:36:26;;;;;;;9.60;8.60;;;17.20;95.50;;;;;;5093111;28;20024;-51
2021/08/19 01:38:52;;;;;;;9.40;8.50;;;17.30;95.40;;;;;;5093464;28;20452;-53
2021/08/19 01:41:19;;;;;;;10.20;8.77;;;17.30;95.40;;;;;;5093236;28;20024;-55
2021/08/19 01:43:46;;;;;;;11.90;9.13;;;17.10;95.70;;;;;;5093457;28;20039;-55
2021/08/19 01:46:17;;;;;;;9.52;8.52;;;17.00;95.80;;;;;;5092989;28;20110;-54
2021/08/19 01:48:47;;;;;;;10.15;9.15;;;17.10;95.70;;;;;;5093765;28;20016;-53
2021/08/19 01:51:14;;;;;;;10.63;9.35;;;17.10;95.70;;;;;;5093089;28;20119;-54
2021/08/19 01:53:44;;;;;;;10.55;9.32;;;17.10;95.80;;;;;;5093000;28;20107;-53
2021/08/19 01:56:09;;;;;;;11.15;9.95;;;17.10;95.70;;;;;;5093545;28;20028;-52
2021/08/19 01:58:35;;;;;;;11.27;9.13;;;17.00;96.00;;;;;;5093113;28;20104;-53
2021/08/19 02:01:01;;;;;;;10.88;9.70;;;17.00;96.10;;;;;;5093443;28;20044;-53
2021/08/19 02:03:27;;;;;;;12.23;9.77;;;17.00;96.00;;;;;;5092872;28;20033;-55
2021/08/19 02:05:53;;;;;;;10.48;9.38;;;17.00;96.00;;;;;;5092472;28;20391;-54
2021/08/19 02:08:19;;;;;;;10.68;9.65;;;17.00;96.00;;;;;;5092834;28;20038;-56
2021/08/19 02:10:45;;;;;;;10.60;9.50;;;16.90;96.20;;;;;;5092772;28;20492;-52
2021/08/19 02:13:12;;;;;;;10.25;9.23;;;16.90;96.30;;;;;;5092860;28;20035;-53
2021/08/19 02:15:38;;;;;;;10.85;9.00;;;17.00;96.20;;;;;;5092554;28;20039;-53
2021/08/19 02:18:03;;;;;;;9.93;9.00;;;16.90;96.20;;;;;;5092671;28;20442;-51
2021/08/19 02:20:29;;;;;;;10.60;9.15;;;16.90;96.10;;;;;;5078056;28;20036;-54
2021/08/19 02:23:00;;;;;;;11.68;8.88;;;17.00;96.20;;;;;;5072022;28;20032;-52
2021/08/19 02:25:25;;;;;;;10.02;9.02;;;17.00;96.00;;;;;;5071691;28;20080;-56
2021/08/19 02:27:51;;;;;;;10.15;9.15;;;17.10;95.90;;;;;;5071816;28;20135;-53
2021/08/19 02:30:16;;;;;;;10.13;9.13;;;17.00;96.00;;;;;;5075474;28;20043;-52
2021/08/19 02:32:42;;;;;;;10.15;8.93;;;17.00;96.10;;;;;;5091994;28;20035;-54
2021/08/19 02:35:08;;;;;;;10.57;9.48;;;16.90;96.30;;;;;;5091233;28;20041;-55
2021/08/19 02:37:34;;;;;;;10.77;9.02;;;16.90;96.40;;;;;;5092433;28;20036;-51
2021/08/19 02:39:59;;;;;;;9.80;8.90;;;16.90;96.40;;;;;;5091632;28;20236;-52
2021/08/19 02:42:25;;;;;;;12.07;9.45;;;16.80;96.50;;;;;;5091273;28;20036;-56
2021/08/19 02:44:50;;;;;;;13.70;9.25;;;16.80;96.70;;;;;;5092828;28;20043;-53
2021/08/19 02:47:16;;;;;;;11.38;9.20;;;16.80;96.50;;;;;;5092401;28;20040;-52
2021/08/19 02:49:41;;;;;;;9.43;8.40;;;16.90;96.70;;;;;;5092362;28;20074;-51
2021/08/19 02:52:07;;;;;;;9.20;7.97;;;16.90;96.30;;;;;;5092536;28;20363;-51
2021/08/19 02:54:33;;;;;;;9.45;8.45;;;17.00;96.30;;;;;;5092374;28;20496;-55
2021/08/19 02:56:58;;;;;;;9.52;8.63;;;17.00;96.20;;;;;;5092660;28;20674;-54
2021/08/19 02:59:24;;;;;;;9.10;8.20;;;16.90;96.50;;;;;;5092769;28;20369;-52
2021/08/19 03:01:50;;;;;;;9.75;8.85;;;16.90;96.50;;;;;;5092369;28;20051;-55
2021/08/19 03:04:15;;;;;;;9.73;8.73;;;16.90;96.50;;;;;;5092237;28;20127;-51
2021/08/19 03:06:41;;;;;;;10.52;8.32;;;16.90;96.60;;;;;;5091928;28;20368;-55
2021/08/19 03:09:07;;;;;;;10.98;8.68;;;16.80;96.70;;;;;;5092191;28;20028;-55
2021/08/19 03:11:32;;;;;;;9.77;7.60;;;16.90;96.60;;;;;;5092409;28;20052;-52
2021/08/19 03:13:59;;;;;;;9.13;8.23;;;16.90;96.50;;;;;;5092653;28;20035;-50
2021/08/19 03:16:25;;;;;;;9.80;8.10;;;16.90;96.50;;;;;;5091691;28;20039;-53
2021/08/19 03:18:50;;;;;;;9.40;8.38;;;16.80;96.70;;;;;;5091394;28;20024;-53
2021/08/19 03:21:19;;;;;;;9.30;8.32;;;16.90;96.60;;;;;;5072046;28;20033;-53
2021/08/19 03:23:46;;;;;;;9.43;8.55;;;16.90;96.50;;;;;;5072264;28;20036;-53
2021/08/19 03:26:11;;;;;;;9.30;8.40;;;17.00;96.50;;;;;;5071700;28;20701;-52
2021/08/19 03:28:38;;;;;;;9.35;8.38;;;17.00;96.30;;;;;;5071946;28;20029;-53
2021/08/19 03:31:04;;;;;;;9.20;8.30;;;17.00;96.30;;;;;;5082091;28;20032;-54
2021/08/19 03:33:30;;;;;;;9.77;8.38;;;17.00;96.70;;;;;;5095463;28;20034;-52
2021/08/19 03:35:56;;;;;;;9.35;8.45;;;17.00;96.40;;;;;;5096151;28;20499;-52
2021/08/19 03:38:22;;;;;;;9.68;8.75;;;17.00;96.40;;;;;;5096083;28;20024;-59
2021/08/19 03:40:47;;;;;;;10.15;8.52;;;17.00;96.30;;;;;;5095954;28;20043;-51
2021/08/19 03:43:13;;;;;;;9.40;8.50;;;17.00;96.40;;;;;;5095898;28;20510;-53
2021/08/19 03:45:39;;;;;;;9.27;8.38;;;17.00;96.20;;;;;;5095172;28;20115;-54
2021/08/19 03:48:05;;;;;;;8.55;7.65;;;16.90;96.50;;;;;;5095090;28;20439;-50
2021/08/19 03:50:30;;;;;;;8.05;7.35;;;16.90;96.50;;;;;;5095502;28;20040;-55
2021/08/19 03:52:56;;;;;;;8.73;7.93;;;17.00;96.40;;;;;;5095310;28;20029;-53
2021/08/19 03:55:22;;;;;;;8.82;7.93;;;17.00;96.30;;;;;;5095246;28;20498;-54
2021/08/19 03:57:47;;;;;;;9.93;8.93;;;17.10;96.20;;;;;;5095282;28;20024;-50
2021/08/19 04:00:14;;;;;;;9.70;8.73;;;17.00;96.10;;;;;;5095450;28;20039;-55
2021/08/19 04:02:40;;;;;;;9.25;8.45;;;17.00;96.30;;;;;;5095449;28;20032;-57
2021/08/19 04:05:06;;;;;;;9.10;8.20;;;16.90;96.30;;;;;;5095360;28;20383;-54
2021/08/19 04:07:32;;;;;;;10.27;9.20;;;17.10;96.10;;;;;;5095380;28;20518;-56
2021/08/19 04:09:57;;;;;;;10.02;9.00;;;17.00;96.00;;;;;;5095727;28;20024;-50
2021/08/19 04:12:23;;;;;;;9.80;8.80;;;17.00;96.20;;;;;;5094850;28;20031;-53
2021/08/19 04:14:49;;;;;;;9.77;8.23;;;17.00;96.30;;;;;;5095745;28;20036;-51
2021/08/19 04:17:14;;;;;;;12.18;8.65;;;17.00;96.30;;;;;;5094734;28;20538;-53
2021/08/19 04:19:40;;;;;;;11.07;9.75;;;17.10;96.20;;;;;;5087925;28;20464;-55
2021/08/19 04:22:06;;;;;;;10.50;9.50;;;17.10;96.30;;;;;;5075147;28;20104;-53
2021/08/19 04:24:31;;;;;;;11.48;9.38;;;17.10;96.10;;;;;;5077518;28;20043;-55
2021/08/19 04:26:57;;;;;;;11.25;9.02;;;17.10;96.00;;;;;;5083256;28;20526;-52
2021/08/19 04:29:22;;;;;;;9.95;8.95;;;17.10;96.10;;;;;;5084089;28;20048;-56
2021/08/19 04:31:48;;;;;;;11.07;9.57;;;17.10;96.00;;;;;;5093814;28;20032;-52
2021/08/19 04:34:14;;;;;;;12.43;10.35;;;17.10;96.10;;;;;;5095488;28;20032;-52
2021/08/19 04:36:39;;;;;;;13.13;10.80;;;17.00;96.20;;;;;;5094904;28;20032;-53
2021/08/19 04:39:05;;;;;;;11.45;9.75;;;16.90;96.30;;;;;;5094588;28;20031;-53
2021/08/19 04:41:31;;;;;;;11.90;10.48;;;17.00;96.30;;;;;;5094613;28;20036;-55
2021/08/19 04:43:56;;;;;;;12.18;10.48;;;17.10;95.90;;;;;;5093026;28;20039;-55
2021/08/19 04:46:22;;;;;;;12.32;9.98;;;17.10;95.80;;;;;;5093486;28;20044;-53
2021/08/19 04:48:47;;;;;;;11.73;10.52;;;17.30;95.70;;;;;;5094126;28;20502;-53
2021/08/19 04:51:13;;;;;;;12.85;11.38;;;17.30;95.70;;;;;;5094826;28;20082;-54
2021/08/19 04:53:38;;;;;;;12.13;10.75;;;17.20;95.90;;;;;;5094212;28;20024;-51
2021/08/19 04:56:04;;;;;;;12.15;11.00;;;17.10;96.00;;;;;;5094179;28;20365;-51
2021/08/19 04:58:30;;;;;;;12.60;11.30;;;17.10;96.00;;;;;;5094035;28;20036;-55
2021/08/19 05:00:55;;;;;;;13.35;10.93;;;17.30;95.90;;;;;;5094670;28;20032;-54
2021/08/19 05:03:21;;;;;;;13.30;11.90;;;17.30;95.80;;;;;;5094817;28;20081;-55
2021/08/19 05:05:46;;;;;;;12.35;11.05;;;17.20;96.20;;;;;;5075970;28;20085;-57
2021/08/19 05:08:12;;;;;;;13.65;12.25;;;17.20;96.30;;;;;;5094437;28;20107;-53
2021/08/19 05:10:38;;;;;;;13.45;11.82;;;17.20;96.30;;;;;;5094840;28;20126;-55
2021/08/19 05:13:04;;;;;;;14.25;11.57;;;17.10;96.20;;;;;;5094457;28;20491;-56
2021/08/19 05:15:29;;;;;;;12.55;11.38;;;17.20;96.20;;;;;;5093692;28;20240;-53
2021/08/19 05:17:55;;;;;;;13.35;11.88;;;17.30;96.00;;;;;;5093865;28;20104;-54
2021/08/19 05:20:21;;;;;;;13.02;11.73;;;17.50;95.70;;;;;;5081265;28;20025;-55
2021/08/19 05:22:47;;;;;;;14.57;12.95;;;17.30;96.00;;;;;;5074033;28;20060;-55
2021/08/19 05:25:13;;;;;;;13.65;12.25;;;17.20;96.30;;;;;;5078559;28;20071;-55
2021/08/19 05:27:38;;;;;;;13.75;12.13;;;17.20;96.30;;;;;;5078797;28;20477;-50
2021/08/19 05:30:05;;;;;;;14.30;12.85;;;17.30;96.20;;;;;;5075699;28;20044;-54
2021/08/19 05:32:30;;;;;;;14.10;12.70;;;17.20;96.30;;;;;;5093563;28;20483;-51
2021/08/19 05:34:56;;;;;;;12.57;11.27;;;17.20;96.40;;;;;;5094200;28;20032;-57
2021/08/19 05:37:22;;;;;;;13.30;11.57;;;17.30;96.30;;;;;;5080905;28;20047;-56
2021/08/19 05:39:48;;;;;;;13.20;11.88;;;17.30;96.30;;;;;;5075404;28;20029;-52
2021/08/19 05:42:14;;;;;;;13.80;12.40;;;17.50;95.90;;;;;;5073531;28;20529;-53
2021/08/19 05:44:39;;;;;;;13.60;11.93;;;17.40;96.00;;;;;;5090076;28;20040;-57
2021/08/19 05:47:06;;;;;;;12.80;11.10;;;17.50;96.00;;;;;;5092999;28;20123;-52
2021/08/19 05:49:40;;;;;;;14.40;11.10;;;17.40;96.00;;;;;;5093190;28;20513;-54
2021/08/19 05:52:06;;;;;;;;;;;17.50;95.90;;;;;;5093438;28;20077;-53
2021/08/19 05:54:31;;;;;;;14.27;10.85;;;17.50;96.10;;;;;;5093221;28;19908;-54
2021/08/19 05:56:57;;;;;;;12.57;10.73;;;17.40;96.10;;;;;;5092130;28;20032;-54
2021/08/19 05:59:22;;;;;;;11.77;10.57;;;17.50;96.00;;;;;;5093661;28;20036;-56
2021/08/19 06:01:48;;;;;;;13.10;11.18;;;17.50;95.80;;;;;;5093029;28;20035;-53
2021/08/19 06:04:14;;;;;;;13.52;10.65;;;17.60;95.80;;;;;;5093372;28;20059;-54
2021/08/19 06:06:39;;;;;;;11.90;10.70;;;17.60;95.60;;;;;;5093596;28;20157;-54
2021/08/19 06:09:05;;;;;;;13.13;11.43;;;17.60;95.80;;;;;;5093486;28;20044;-53
2021/08/19 06:11:30;;;;;;;12.05;10.55;;;17.60;96.00;;;;;;5093566;28;20399;-52
2021/08/19 06:13:56;;;;;;;12.07;10.88;;;17.60;95.90;;;;;;5093391;28;20563;-54
2021/08/19 06:16:21;;;;;;;11.13;10.02;;;17.60;95.80;;;;;;5092941;28;20039;-53
2021/08/19 06:18:47;;;;;;;15.13;11.07;;;17.60;95.80;;;;;;5075219;28;20036;-51
2021/08/19 06:21:12;;;;;;;11.48;10.23;;;17.80;95.50;;;;;;5073394;28;20483;-56
2021/08/19 06:23:38;;;;;;;14.40;10.40;;;17.70;95.40;;;;;;5072836;28;20530;-51
2021/08/19 06:26:04;;;;;;;12.20;10.55;;;17.70;95.60;;;;;;5072706;28;20021;-54
2021/08/19 06:28:29;;;;;;;11.40;10.27;;;17.70;95.70;;;;;;5073117;28;20027;-54
2021/08/19 06:30:55;;;;;;;11.82;10.55;;;17.70;95.50;;;;;;5076156;28;20028;-58
2021/08/19 06:33:20;;;;;;;12.05;10.75;;;17.70;95.30;;;;;;5073046;28;20035;-53
2021/08/19 06:35:46;;;;;;;13.88;10.07;;;17.80;95.30;;;;;;5073522;28;20028;-52
2021/08/19 06:38:14;;;;;;;13.18;11.63;;;17.70;95.30;;;;;;5093640;28;20146;-56
2021/08/19 06:40:40;;;;;;;17.02;10.68;;;17.80;95.30;;;;;;5094095;28;20395;-55
2021/08/19 06:43:05;;;;;;;12.57;10.25;;;17.80;95.40;;;;;;5075476;28;20028;-55
2021/08/19 06:45:31;;;;;;;11.60;9.27;;;17.80;95.20;;;;;;5093399;28;20032;-52
2021/08/19 06:47:56;;;;;;;10.90;9.80;;;17.90;95.30;;;;;;5093404;28;20486;-51
2021/08/19 06:50:22;;;;;;;13.98;8.98;;;17.90;95.10;;;;;;5092809;28;20047;-53
2021/08/19 06:52:47;;;;;;;9.95;8.70;;;18.00;95.10;;;;;;5070346;28;20075;-53
2021/08/19 06:55:13;;;;;;;9.25;8.23;;;18.00;95.10;;;;;;5072556;28;20063;-51
2021/08/19 06:57:39;;;;;;;11.07;8.18;;;18.00;95.10;;;;;;5072413;28;20344;-52
2021/08/19 07:00:06;;;;;;;10.18;9.05;;;17.90;95.10;;;;;;5072931;28;20074;-54
2021/08/19 07:02:32;;;;;;;10.02;8.88;;;18.00;95.10;;;;;;5072694;28;20032;-53
2021/08/19 07:04:58;;;;;;;10.80;9.18;;;18.00;95.00;;;;;;5073331;28;20437;-52
2021/08/19 07:07:28;;;;;;;9.70;8.80;;;18.10;95.00;;;;;;5073901;28;20045;-52
2021/08/19 07:09:57;;;;;;;10.35;8.80;;;18.10;94.80;;;;;;5076109;28;20166;-53
2021/08/19 07:12:23;;;;;;;10.20;8.63;;;18.20;95.00;;;;;;5070384;28;20032;-50
2021/08/19 07:14:49;;;;;;;9.35;7.97;;;18.20;94.90;;;;;;5081858;28;20016;-55
2021/08/19 07:17:14;;;;;;;10.52;8.07;;;18.10;94.90;;;;;;5087906;28;20024;-55
2021/08/19 07:19:40;;;;;;;9.10;7.97;;;18.20;94.90;;;;;;5082268;28;20067;-55
2021/08/19 07:22:05;;;;;;;10.43;7.80;;;18.30;94.60;;;;;;5093882;28;20105;-55
2021/08/19 07:24:31;;;;;;;9.98;7.82;;;18.40;94.40;;;;;;5093575;28;20028;-55
2021/08/19 07:26:57;;;;;;;8.32;7.53;;;18.40;94.40;;;;;;5075733;28;20721;-53
2021/08/19 07:29:22;;;;;;;9.90;8.27;;;18.30;94.30;;;;;;5089859;28;20051;-53
2021/08/19 07:31:48;;;;;;;8.82;7.85;;;18.20;94.60;;;;;;5096641;28;20395;-53
2021/08/19 07:34:14;;;;;;;8.65;7.38;;;18.30;94.50;;;;;;5083977;28;20097;-56
2021/08/19 07:36:39;;;;;;;9.38;7.47;;;18.40;94.30;;;;;;5084410;28;20502;-51
2021/08/19 07:39:05;;;;;;;8.68;7.25;;;18.50;94.10;;;;;;5076860;28;20020;-52
2021/08/19 07:41:32;;;;;;;9.20;7.65;;;18.50;94.00;;;;;;5058624;28;20044;-54
2021/08/19 07:43:58;;;;;;;7.45;6.65;;;18.60;94.00;;;;;;5076571;28;20028;-54
2021/08/19 07:46:24;;;;;;;7.35;6.55;;;18.70;94.00;;;;;;5076320;28;20123;-53
2021/08/19 07:48:50;;;;;;;8.57;6.70;;;18.80;94.00;;;;;;5078964;28;20042;-52
2021/08/19 07:51:16;;;;;;;7.10;6.40;;;18.70;93.90;;;;;;5092054;28;20020;-50
2021/08/19 07:53:42;;;;;;;12.82;7.45;;;18.80;93.80;;;;;;5098496;28;20111;-55
2021/08/19 07:56:09;;;;;;;7.18;6.30;;;18.80;93.70;;;;;;5090356;28;20377;-50
2021/08/19 07:58:34;;;;;;;9.10;7.15;;;18.80;93.70;;;;;;5082526;28;20033;-51
2021/08/19 08:01:00;;;;;;;7.78;6.50;;;18.90;93.60;;;;;;5088318;28;20545;-55
2021/08/19 08:03:26;;;;;;;7.60;6.80;;;18.90;93.70;;;;;;5087447;28;20056;-55
2021/08/19 08:05:51;;;;;;;7.85;6.95;;;19.00;93.50;;;;;;5075299;28;20047;-53
2021/08/19 08:08:17;;;;;;;8.82;7.78;;;18.90;93.60;;;;;;5074886;28;20032;-55
2021/08/19 08:10:43;;;;;;;10.13;7.45;;;19.00;93.40;;;;;;5075416;28;20028;-56
2021/08/19 08:13:10;;;;;;;7.25;6.55;;;18.90;93.50;;;;;;5089471;28;20032;-56
2021/08/19 08:15:37;;;;;;;7.18;6.47;;;18.90;93.50;;;;;;5076394;28;20400;-57
2021/08/19 08:18:04;;;;;;;9.23;7.57;;;19.10;93.40;;;;;;5080309;28;20032;-52
2021/08/19 08:20:31;;;;;;;10.60;7.35;;;19.00;93.60;;;;;;5081076;28;20029;-53
2021/08/19 08:22:57;;;;;;;7.72;6.65;;;19.10;93.40;;;;;;5075405;28;20036;-55
2021/08/19 08:25:22;;;;;;;11.85;8.10;;;19.10;93.50;;;;;;5057865;28;20028;-50
2021/08/19 08:28:14;;;;;;;8.07;7.28;;;19.00;93.10;;;;;;5074952;28;20032;-54
2021/08/19 08:30:45;;;;;;;8.73;7.18;;;18.90;93.70;;;;;;5080265;28;20032;-52
2021/08/19 08:33:10;;;;;;;8.57;7.43;;;18.90;93.60;;;;;;5075361;28;20124;-55
2021/08/19 08:35:39;;;;;;;8.27;7.47;;;18.90;93.80;;;;;;5079976;28;20115;-55
2021/08/19 08:38:11;;;;;;;8.00;6.97;;;19.10;93.40;;;;;;5077105;28;20074;-55
2021/08/19 08:40:40;;;;;;;8.98;8.15;;;19.20;93.30;;;;;;5085896;28;20101;-55
2021/08/19 08:43:07;;;;;;;14.50;8.55;;;19.10;93.30;;;;;;5077982;28;20043;-56
2021/08/19 08:45:40;;;;;;;9.15;8.20;;;19.10;93.60;;;;;;5094693;28;20078;-54
2021/08/19 08:48:26;;;;;;;9.63;8.38;;;19.00;93.40;;;;;;5075177;28;20112;-53
2021/08/19 08:50:58;;;;;;;10.73;7.60;;;19.20;93.50;;;;;;5074557;28;20119;-51
2021/08/19 08:53:25;;;;;;;7.97;7.18;;;19.20;93.60;;;;;;5075356;28;20377;-53
2021/08/19 08:55:51;;;;;;;6.63;5.95;;;19.30;93.50;;;;;;5076463;28;20037;-55
2021/08/19 08:58:16;;;;;;;8.60;6.07;;;19.30;93.50;;;;;;5095476;28;20082;-57
2021/08/19 09:00:44;;;;;;;6.10;5.50;;;19.50;93.20;;;;;;5094892;28;20032;-54
2021/08/19 09:03:15;;;;;;;7.68;6.18;;;19.60;93.10;;;;;;5094542;28;20024;-52
2021/08/19 09:05:51;;;;;;;10.52;6.43;;;19.50;93.00;;;;;;5094619;28;20057;-51
2021/08/19 09:08:18;;;;;;;7.80;5.80;;;19.50;93.10;;;;;;5094547;28;20035;-52
2021/08/19 09:10:45;;;;;;;10.27;6.60;;;19.50;93.30;;;;;;5093821;28;20036;-55
2021/08/19 09:13:16;;;;;;;6.95;6.25;;;19.50;93.20;;;;;;5094020;28;20054;-57
2021/08/19 09:15:44;;;;;;;9.00;6.65;;;19.40;93.30;;;;;;5094230;28;20039;-53
2021/08/19 09:18:11;;;;;;;8.55;6.82;;;19.20;93.40;;;;;;5094882;28;20036;-55
2021/08/19 09:20:42;;;;;;;7.55;6.68;;;19.40;93.70;;;;;;5079147;28;20044;-53
2021/08/19 09:23:10;;;;;;;8.93;6.18;;;19.40;93.60;;;;;;5074056;28;20117;-49
2021/08/19 09:25:41;;;;;;;7.13;6.07;;;19.50;93.40;;;;;;5073404;28;20391;-54
2021/08/19 09:28:11;;;;;;;7.35;5.95;;;19.30;93.70;;;;;;5073958;28;20029;-51
2021/08/19 09:30:38;;;;;;;8.48;6.43;;;19.30;93.60;;;;;;5079800;28;20059;-55
2021/08/19 09:33:05;;;;;;;7.28;6.57;;;19.20;93.70;;;;;;5094281;28;20444;-50
2021/08/19 09:35:32;;;;;;;8.07;6.30;;;19.20;93.70;;;;;;5094560;28;20039;-52
2021/08/19 09:38:04;;;;;;;8.95;7.35;;;19.10;93.90;;;;;;5094718;28;20059;-55
2021/08/19 09:40:30;;;;;;;7.70;6.90;;;19.10;94.10;;;;;;5094002;28;20429;-55
2021/08/19 09:42:56;;;;;;;9.05;8.15;;;19.10;94.20;;;;;;5093894;28;20090;-54
2021/08/19 09:45:24;;;;;;;12.57;10.20;;;19.20;94.10;;;;;;5094043;28;20444;-54
2021/08/19 09:47:50;;;;;;;10.23;7.55;;;19.40;93.90;;;;;;5089750;28;20050;-55
2021/08/19 09:50:18;;;;;;;7.03;5.88;;;19.20;94.30;;;;;;5080329;28;20078;-54
2021/08/19 09:52:50;;;;;;;6.40;5.80;;;19.10;94.40;;;;;;5072995;28;20031;-56
2021/08/19 09:55:25;;;;;;;6.97;6.13;;;19.10;94.40;;;;;;5089687;28;20023;-56
2021/08/19 09:57:51;;;;;;;9.57;6.60;;;19.10;94.50;;;;;;5093389;28;20698;-57
2021/08/19 10:00:32;;;;;;;6.50;5.90;;;19.20;94.50;;;;;;5092489;28;20099;-56
2021/08/19 10:02:58;;;;;;;7.30;6.30;;;19.20;94.40;;;;;;5093918;28;20039;-51
2021/08/19 10:05:25;;;;;;;7.82;6.13;;;19.20;94.30;;;;;;5093492;28;20620;-52
2021/08/19 10:07:51;;;;;;;7.15;6.45;;;19.10;94.60;;;;;;5086323;28;20078;-55
2021/08/19 10:10:17;;;;;;;8.68;6.95;;;19.20;94.60;;;;;;5074361;28;20060;-56
2021/08/19 10:12:44;;;;;;;8.15;6.20;;;19.20;94.70;;;;;;5075322;28;20104;-55
2021/08/19 10:15:16;;;;;;;8.73;6.88;;;19.20;94.60;;;;;;5077992;28;20040;-53
2021/08/19 10:17:47;;;;;;;9.07;7.47;;;19.20;94.70;;;;;;5086923;28;20028;-54
2021/08/19 10:20:18;;;;;;;8.65;6.50;;;19.10;94.90;;;;;;5076062;28;20032;-54
2021/08/19 10:22:46;;;;;;;8.25;6.68;;;19.20;94.80;;;;;;5079729;28;20071;-53
2021/08/19 10:25:13;;;;;;;8.23;6.43;;;19.40;94.50;;;;;;5084799;28;20040;-53
2021/08/19 10:27:38;;;;;;;8.60;6.78;;;19.40;94.20;;;;;;5078815;28;20039;-51
2021/08/19 10:30:07;;;;;;;8.20;6.45;;;19.30;94.50;;;;;;5085009;28;20025;-54
2021/08/19 10:32:38;;;;;;;7.88;7.05;;;19.50;94.00;;;;;;5082889;28;20024;-50
2021/08/19 10:35:12;;;;;;;7.20;6.47;;;19.40;94.00;;;;;;5071858;28;20032;-54
2021/08/19 10:37:47;;;;;;;6.90;6.10;;;19.50;93.90;;;;;;5071263;28;20043;-54
2021/08/19 10:40:31;;;;;;;8.18;6.63;;;19.40;94.00;;;;;;5086105;28;20024;-56
2021/08/19 10:42:58;;;;;;;;;;;19.60;93.80;;;;;;5091383;28;20040;-56
2021/08/19 10:45:26;;;;;;;8.85;7.75;;;19.40;93.80;;;;;;5091669;28;19948;-56
2021/08/19 10:47:53;;;;;;;10.25;6.80;;;19.40;94.10;;;;;;5091465;28;20028;-56
2021/08/19 10:50:24;;;;;;;10.93;7.97;;;19.50;94.00;;;;;;5091318;28;20036;-52
2021/08/19 10:52:50;;;;;;;7.72;6.93;;;19.50;93.80;;;;;;5082169;28;20028;-52
2021/08/19 10:55:19;;;;;;;7.07;6.38;;;19.50;94.00;;;;;;5079521;28;20039;-56
2021/08/19 10:57:55;;;;;;;7.97;7.10;;;19.40;94.10;;;;;;5091488;28;20025;-52
2021/08/19 11:00:38;;;;;;;7.45;6.38;;;19.60;94.10;;;;;;5091594;28;20054;-55
2021/08/19 11:03:04;;;;;;;8.48;6.55;;;19.30;94.20;;;;;;5073309;28;20036;-55
2021/08/19 11:05:30;;;;;;;9.88;7.15;;;19.20;94.30;;;;;;5091744;28;20553;-56
2021/08/19 11:08:00;;;;;;;8.43;6.50;;;19.10;94.60;;;;;;5091516;28;20103;-52
2021/08/19 11:10:27;;;;;;;8.10;6.93;;;19.20;94.70;;;;;;5073483;28;20123;-56
2021/08/19 11:12:59;;;;;;;10.43;6.18;;;19.30;94.60;;;;;;5090789;28;20027;-55
2021/08/19 11:15:25;;;;;;;6.38;5.70;;;19.40;94.10;;;;;;5077920;28;20651;-56
2021/08/19 11:17:56;;;;;;;8.27;6.70;;;19.40;93.70;;;;;;5080892;28;20040;-55
2021/08/19 11:20:29;;;;;;;9.15;6.45;;;19.50;94.00;;;;;;5087079;28;20051;-53
2021/08/19 11:23:04;;;;;;;10.75;6.30;;;19.80;93.90;;;;;;5091073;28;20024;-55
2021/08/19 11:25:32;;;;;;;9.23;5.88;;;19.90;93.60;;;;;;5090800;28;20028;-50
2021/08/19 11:28:13;;;;;;;7.22;6.40;;;19.90;93.50;;;;;;5071276;28;20047;-51
2021/08/19 11:30:42;;;;;;;7.57;6.03;;;19.70;93.60;;;;;;5082761;28;20120;-51
2021/08/19 11:33:22;;;;;;;6.20;4.85;;;19.80;93.50;;;;;;5071387;28;20033;-52
2021/08/19 11:35:50;;;;;;;5.80;5.20;;;19.80;93.30;;;;;;5083228;28;20031;-54
2021/08/19 11:38:18;;;;;;;7.25;5.00;;;20.00;93.00;;;;;;5072213;28;20480;-50
2021/08/19 11:40:46;;;;;;;5.28;4.68;;;20.10;92.70;;;;;;5071012;28;20056;-55
2021/08/19 11:43:25;;;;;;;5.55;4.72;;;20.20;92.70;;;;;;5070845;28;20843;-50
2021/08/19 11:45:54;;;;;;;5.85;5.30;;;20.30;92.70;;;;;;5071061;28;20041;-55
2021/08/19 11:48:23;;;;;;;6.50;5.25;;;20.30;92.80;;;;;;5070688;28;20037;-54
2021/08/19 11:50:57;;;;;;;9.10;5.40;;;20.00;93.20;;;;;;5052832;28;20067;-53
2021/08/19 11:53:24;;;;;;;11.55;6.15;;;19.90;92.80;;;;;;5070951;28;20384;-51
2021/08/19 11:55:50;;;;;;;6.65;4.72;;;19.80;93.30;;;;;;5077957;28;20036;-55
2021/08/19 11:58:18;;;;;;;8.77;5.32;;;19.80;93.60;;;;;;5094872;28;20120;-55
2021/08/19 12:00:57;;;;;;;7.35;5.30;;;19.90;93.50;;;;;;5094457;28;20035;-51
2021/08/19 12:03:23;;;;;;;7.45;5.78;;;19.70;94.10;;;;;;5083181;28;20479;-54
2021/08/19 12:06:06;;;;;;;6.25;5.65;;;19.50;94.40;;;;;;5073835;28;20060;-53
2021/08/19 12:08:33;;;;;;;7.82;5.82;;;19.50;94.70;;;;;;5074430;28;20032;-51
2021/08/19 12:11:02;;;;;;;6.50;5.78;;;19.60;94.40;;;;;;5056123;28;20028;-50
2021/08/19 12:13:28;;;;;;;6.50;5.75;;;19.60;94.50;;;;;;5074287;28;20029;-51
2021/08/19 12:15:55;;;;;;;7.25;6.50;;;19.80;94.10;;;;;;5077349;28;20028;-51
2021/08/19 12:18:29;;;;;;;7.05;6.35;;;19.80;94.20;;;;;;5076432;28;20035;-54
2021/08/19 12:21:18;;;;;;;7.13;6.43;;;19.90;94.10;;;;;;5073408;28;20028;-52
2021/08/19 12:23:47;;;;;;;7.65;6.85;;;19.90;94.00;;;;;;5091197;28;20028;-53
2021/08/19 12:26:16;;;;;;;9.05;6.78;;;20.00;93.90;;;;;;5079103;28;20033;-55
2021/08/19 12:28:56;;;;;;;7.68;6.88;;;20.10;94.00;;;;;;5090680;28;20082;-54
2021/08/19 12:31:22;;;;;;;8.07;7.22;;;20.20;93.80;;;;;;5080954;28;20056;-52
2021/08/19 12:34:01;;;;;;;10.02;7.85;;;20.30;93.40;;;;;;5075658;28;20388;-50
2021/08/19 12:36:30;;;;;;;8.77;7.75;;;20.30;93.30;;;;;;5073359;28;20082;-53
2021/08/19 12:39:19;;;;;;;9.13;8.02;;;20.30;93.20;;;;;;5073674;28;20028;-54
2021/08/19 12:41:46;;;;;;;10.07;8.02;;;20.20;93.50;;;;;;5085842;28;20487;-52